Time;durP1;ratioP1;P1;durP2;ratioP2;P2;SDS_P1;SDS_P2;PMS_P1;PMS_P2;Temp;Humidity;BMP_temperature;BMP_pressure;BME280_temperature;BME280_humidity;BME280_pressure;Samples;Min_cycle;Max_cycle;Signal;HPM_P1;HPM_P2
2021/07/01 00:01:54;;;;;;;;;;;;;;;21.33;60.72;100384.00;5057166;28;808;-42
2021/07/01 00:04:20;;;;;;;;;;;;;;;20.61;60.11;100388.47;5057152;28;752;-42
2021/07/01 00:06:45;;;;;;;;;;;;;;;21.08;63.38;100385.47;5056853;28;744;-44
2021/07/01 00:09:14;;;;;;;;;;;;;;;21.09;65.50;100378.81;5057048;28;795;-42
2021/07/01 00:11:41;;;;;;;;;;;;;;;21.40;64.40;100391.88;5057124;28;791;-42
2021/07/01 00:14:06;;;;;;;;;;;;;;;21.42;63.98;100392.38;5056287;28;1034;-42
2021/07/01 00:16:32;;;;;;;;;;;;;;;21.44;63.78;100381.00;5056849;28;756;-42
2021/07/01 00:18:57;;;;;;;;;;;;;;;21.32;63.79;100376.03;5056862;28;1926;-42
2021/07/01 00:21:23;;;;;;;;;;;;;;;20.97;61.38;100376.63;5056406;28;761;-41
2021/07/01 00:23:48;;;;;;;;;;;;;;;20.63;61.86;100377.09;5056599;28;1000;-42
2021/07/01 00:26:15;;;;;;;;;;;;;;;21.16;63.58;100383.91;5057326;28;800;-42
2021/07/01 00:28:40;;;;;;;;;;;;;;;21.48;64.58;100376.47;5056048;28;1041;-43
2021/07/01 00:31:06;;;;;;;;;;;;;;;21.68;63.77;100364.88;5038314;28;773;-42
2021/07/01 00:33:31;;;;;;;;;;;;;;;21.74;63.20;100367.50;5056688;28;748;-42
2021/07/01 00:35:57;;;;;;;;;;;;;;;21.57;62.97;100365.47;5056458;28;788;-42
2021/07/01 00:38:22;;;;;;;;;;;;;;;21.18;64.63;100363.09;5056212;28;1922;-42
2021/07/01 00:40:47;;;;;;;;;;;;;;;21.17;62.00;100364.22;5056645;28;784;-41
2021/07/01 00:43:16;;;;;;;;;;;;;;;20.74;60.31;100356.44;5056761;28;791;-42
2021/07/01 00:45:41;;;;;;;;;;;;;;;21.04;63.10;100365.09;5038552;28;1079;-42
2021/07/01 00:48:07;;;;;;;;;;;;;;;21.32;64.25;100356.66;5056307;28;787;-42
2021/07/01 00:50:32;;;;;;;;;;;;;;;21.51;64.36;100354.50;5056518;28;807;-43
2021/07/01 00:52:58;;;;;;;;;;;;;;;21.66;63.45;100349.75;5056101;28;776;-42
2021/07/01 00:55:23;;;;;;;;;;;;;;;21.61;62.38;100352.63;5056332;28;788;-42
2021/07/01 00:57:49;;;;;;;;;;;;;;;21.13;63.30;100346.63;5056040;28;1921;-41
2021/07/01 01:02:49;;;;;;;;;;;;;;;20.62;61.02;100347.81;5036383;28;744;-43
2021/07/01 01:05:20;;;;;;;;;;;;;;;21.15;63.52;100349.09;5018358;28;1376;-41
2021/07/01 01:07:45;;;;;;;;;;;;;;;21.45;63.88;100344.72;5018479;28;851;-41
2021/07/01 01:10:14;;;;;;;;;;;;;;;21.49;63.22;100342.97;5002500;28;1115;-42
2021/07/01 01:12:45;;;;;;;;;;;;;;;21.65;62.31;100340.59;5018285;28;1524;-42
2021/07/01 01:15:11;;;;;;;;;;;;;;;21.28;63.35;100347.38;5047424;28;1525;-42
2021/07/01 01:17:37;;;;;;;;;;;;;;;21.28;63.36;100336.31;5056050;28;1981;-43
2021/07/01 01:20:06;;;;;;;;;;;;;;;20.99;60.85;100340.38;5055888;28;807;-42
2021/07/01 01:22:36;;;;;;;;;;;;;;;20.74;60.73;100337.09;5022301;28;1121;-41
2021/07/01 01:25:05;;;;;;;;;;;;;;;20.85;64.06;100327.41;5055687;28;1137;-41
2021/07/01 01:27:30;;;;;;;;;;;;;;;20.90;65.07;100332.03;5037981;28;1166;-43
2021/07/01 01:29:56;;;;;;;;;;;;;;;21.25;63.33;100337.78;5045050;28;975;-41
2021/07/01 01:32:21;;;;;;;;;;;;;;;21.39;62.56;100334.91;5035919;28;748;-41
2021/07/01 01:34:47;;;;;;;;;;;;;;;21.38;62.24;100330.53;5035925;28;761;-42
2021/07/01 01:37:12;;;;;;;;;;;;;;;21.18;63.06;100326.31;5035930;28;804;-42
2021/07/01 01:39:38;;;;;;;;;;;;;;;20.99;61.71;100319.06;5035660;28;1946;-42
2021/07/01 01:42:05;;;;;;;;;;;;;;;20.53;60.39;100320.13;5036462;28;821;-41
2021/07/01 01:44:33;;;;;;;;;;;;;;;21.01;62.98;100321.50;5036851;28;1457;-41
2021/07/01 01:46:59;;;;;;;;;;;;;;;21.02;63.94;100320.38;5037700;28;1103;-41
2021/07/01 01:49:26;;;;;;;;;;;;;;;21.40;62.41;100313.63;5055621;28;772;-41
2021/07/01 01:51:51;;;;;;;;;;;;;;;21.35;62.21;100306.28;5055472;28;840;-41
2021/07/01 01:54:17;;;;;;;;;;;;;;;21.18;62.75;100310.56;5055938;28;839;-41
2021/07/01 01:56:46;;;;;;;;;;;;;;;21.16;62.16;100320.31;5055656;28;808;-42
2021/07/01 01:59:19;;;;;;;;;;;;;;;20.59;59.79;100307.84;5037018;28;1913;-42
2021/07/01 02:02:03;;;;;;;;;;;;;;;20.91;63.62;100311.53;5055502;28;642;-43
2021/07/01 02:04:37;;;;;;;;;;;;;;;21.25;62.68;100303.78;5037895;28;1261;-41
2021/07/01 02:07:02;;;;;;;;;;;;;;;21.19;62.74;100312.19;5037876;28;1142;-40
2021/07/01 02:09:48;;;;;;;;;;;;;;;21.09;62.48;100309.69;5055168;28;1061;-41
2021/07/01 02:12:13;;;;;;;;;;;;;;;21.26;62.56;100310.94;5055505;28;767;-41
2021/07/01 02:14:39;;;;;;;;;;;;;;;20.68;61.96;100307.97;5037497;28;1155;-41
2021/07/01 02:17:12;;;;;;;;;;;;;;;20.48;61.84;100310.03;5037665;28;1368;-42
2021/07/01 02:19:38;;;;;;;;;;;;;;;21.06;63.14;100304.00;5037473;28;1980;-41
2021/07/01 02:22:04;;;;;;;;;;;;;;;21.42;62.31;100306.63;5058238;28;775;-41
2021/07/01 02:24:34;;;;;;;;;;;;;;;21.55;61.56;100310.47;5041029;28;1361;-41
2021/07/01 02:27:00;;;;;;;;;;;;;;;21.41;61.79;100316.06;5058879;28;816;-41
2021/07/01 02:29:25;;;;;;;;;;;;;;;21.18;62.20;100321.63;5058619;28;1007;-41
2021/07/01 02:32:17;;;;;;;;;;;;;;;21.18;62.21;100307.81;5055025;28;1218;-41
2021/07/01 02:34:43;;;;;;;;;;;;;;;20.87;59.95;100306.94;5040822;28;1480;-41
2021/07/01 02:37:27;;;;;;;;;;;;;;;20.88;62.88;100311.34;5058625;28;594;-41
2021/07/01 02:40:04;;;;;;;;;;;;;;;21.03;63.42;100313.72;5058697;28;859;-42
2021/07/01 02:42:39;;;;;;;;;;;;;;;21.25;62.40;100310.13;5040658;28;1259;-41
2021/07/01 02:45:06;;;;;;;;;;;;;;;21.44;61.55;100312.66;5040684;28;1478;-40
2021/07/01 02:47:54;;;;;;;;;;;;;;;21.38;61.27;100316.69;5058743;28;795;-42
2021/07/01 02:50:20;;;;;;;;;;;;;;;21.20;62.54;100316.59;5039878;28;1234;-41
2021/07/01 02:52:46;;;;;;;;;;;;;;;21.08;61.54;100316.34;5058701;28;786;-41
2021/07/01 02:55:11;;;;;;;;;;;;;;;20.60;60.27;100308.66;5058768;28;765;-41
2021/07/01 02:57:37;;;;;;;;;;;;;;;20.79;63.46;100316.78;5058243;28;1914;-42
2021/07/01 03:00:08;;;;;;;;;;;;;;;20.91;62.25;100306.00;5040019;28;1293;-40
2021/07/01 03:02:43;;;;;;;;;;;;;;;21.31;61.92;100317.16;5032990;28;808;-40
2021/07/01 03:05:31;;;;;;;;;;;;;;;21.36;62.07;100314.25;5049610;28;1337;-40
2021/07/01 03:07:57;;;;;;;;;;;;;;;21.18;63.02;100310.56;5058442;28;784;-44
2021/07/01 03:10:23;;;;;;;;;;;;;;;21.17;63.36;100322.75;5058103;28;839;-41
2021/07/01 03:12:57;;;;;;;;;;;;;;;20.80;61.69;100323.97;5057810;28;856;-41
2021/07/01 03:15:23;;;;;;;;;;;;;;;20.66;61.38;100315.69;5057714;28;936;-42
2021/07/01 03:17:49;;;;;;;;;;;;;;;21.20;63.94;100322.13;5058125;28;1913;-42
2021/07/01 03:20:15;;;;;;;;;;;;;;;21.24;64.92;100313.19;5039921;28;1406;-42
2021/07/01 03:23:06;;;;;;;;;;;;;;;21.45;63.86;100321.78;5057904;28;1131;-41
2021/07/01 03:25:32;;;;;;;;;;;;;;;21.24;64.38;100314.03;5057799;28;1183;-40
2021/07/01 03:27:57;;;;;;;;;;;;;;;21.37;64.14;100313.09;5039828;28;1363;-41
2021/07/01 03:30:23;;;;;;;;;;;;;;;21.12;61.89;100314.59;5048647;28;962;-39
2021/07/01 03:32:49;;;;;;;;;;;;;;;20.74;61.23;100303.94;5020106;28;1159;-39
2021/07/01 03:35:15;;;;;;;;;;;;;;;20.76;62.95;100307.22;5019799;28;1273;-41
2021/07/01 03:38:00;;;;;;;;;;;;;;;21.28;64.86;100303.97;5037723;28;1902;-45
2021/07/01 03:40:37;;;;;;;;;;;;;;;21.51;64.82;100309.44;5019693;28;1411;-41
2021/07/01 03:43:03;;;;;;;;;;;;;;;21.68;63.82;100309.53;5019770;28;1478;-39
2021/07/01 03:45:32;;;;;;;;;;;;;;;21.44;64.50;100317.38;5052757;28;955;-41
2021/07/01 03:47:57;;;;;;;;;;;;;;;21.34;64.98;100318.47;5040047;28;1301;-43
2021/07/01 03:50:23;;;;;;;;;;;;;;;20.99;61.21;100318.25;5039384;28;1229;-40
2021/07/01 03:52:57;;;;;;;;;;;;;;;20.82;61.24;100327.25;5057433;28;629;-41
2021/07/01 03:55:23;;;;;;;;;;;;;;;20.71;63.00;100318.38;5057461;28;876;-44
2021/07/01 03:57:50;;;;;;;;;;;;;;;20.83;61.40;100315.88;5039113;28;1910;-46
2021/07/01 04:00:15;;;;;;;;;;;;;;;20.84;58.87;100317.47;5038945;28;1496;-42
2021/07/01 04:02:44;;;;;;;;;;;;;;;20.64;58.11;100321.53;5057289;28;709;-40
2021/07/01 04:05:13;;;;;;;;;;;;;;;20.61;57.25;100330.44;5056718;28;799;-40
2021/07/01 04:07:39;;;;;;;;;;;;;;;20.51;56.35;100327.94;5057630;28;731;-43
2021/07/01 04:10:12;;;;;;;;;;;;;;;20.35;56.45;100327.44;5038811;28;904;-42
2021/07/01 04:12:48;;;;;;;;;;;;;;;20.24;56.12;100309.47;5057108;28;853;-40
2021/07/01 04:15:32;;;;;;;;;;;;;;;20.44;55.28;100309.03;5056393;28;932;-40
2021/07/01 04:18:16;;;;;;;;;;;;;;;20.30;56.24;100316.50;5056418;28;1910;-41
2021/07/01 04:21:00;;;;;;;;;;;;;;;20.52;57.14;100324.03;5056857;28;630;-40
2021/07/01 04:23:44;;;;;;;;;;;;;;;20.87;59.04;100329.06;5056393;28;1174;-44
2021/07/01 04:26:45;;;;;;;;;;;;;;;21.20;60.83;100335.94;4995048;28;1305;-40
2021/07/01 04:29:18;;;;;;;;;;;;;;;20.88;64.21;100322.41;5029282;28;1291;-53
2021/07/01 04:31:44;;;;;;;;;;;;;;;21.06;62.48;100328.88;5039004;28;1230;-40
2021/07/01 04:34:10;;;;;;;;;;;;;;;20.80;61.13;100333.09;5038867;28;1126;-44
2021/07/01 04:36:37;;;;;;;;;;;;;;;20.91;63.39;100330.06;5038809;28;1185;-41
2021/07/01 04:39:08;;;;;;;;;;;;;;;21.43;64.50;100335.09;5056386;28;1985;-42
2021/07/01 04:41:42;;;;;;;;;;;;;;;21.84;63.33;100328.50;5056028;28;837;-41
2021/07/01 04:44:08;;;;;;;;;;;;;;;21.98;62.52;100339.41;5037863;28;1178;-53
2021/07/01 04:46:37;;;;;;;;;;;;;;;21.44;64.15;100337.56;5038796;28;1095;-42
2021/07/01 04:49:03;;;;;;;;;;;;;;;21.42;64.57;100342.59;5038523;28;1337;-43
2021/07/01 04:51:28;;;;;;;;;;;;;;;21.13;61.94;100343.88;5038387;28;1275;-42
2021/07/01 04:54:12;;;;;;;;;;;;;;;20.53;61.00;100356.03;5056433;28;590;-44
2021/07/01 04:56:56;;;;;;;;;;;;;;;20.82;64.44;100369.50;5055989;28;598;-42
2021/07/01 04:59:22;;;;;;;;;;;;;;;21.30;65.42;100367.25;5056078;28;1926;-45
2021/07/01 05:02:06;;;;;;;;;;;;;;;21.68;65.49;100373.16;5056361;28;597;-42
2021/07/01 05:04:42;;;;;;;;;;;;;;;21.86;64.65;100363.00;5056089;28;813;-45
2021/07/01 05:07:09;;;;;;;;;;;;;;;22.07;63.78;100362.41;5037994;28;1235;-41
2021/07/01 05:09:38;;;;;;;;;;;;;;;21.95;62.98;100359.44;5052458;28;1111;-38
2021/07/01 05:12:32;;;;;;;;;;;;;;;21.05;63.79;100361.22;5047493;28;1091;-38
2021/07/01 05:14:58;;;;;;;;;;;;;;;20.81;59.37;100361.53;5026997;28;1238;-38
2021/07/01 05:17:24;;;;;;;;;;;;;;;20.01;59.46;100350.81;5026359;28;1206;-40
2021/07/01 05:19:49;;;;;;;;;;;;;;;20.00;57.12;100336.16;5028037;28;1946;-39
2021/07/01 05:22:20;;;;;;;;;;;;;;;19.94;55.63;100328.31;5044769;28;1175;-38
2021/07/01 05:25:21;;;;;;;;;;;;;;;20.09;55.15;100330.78;5013598;28;1030;-42
2021/07/01 05:28:11;;;;;;;;;;;;;;;20.35;54.90;100333.78;5034455;28;1041;-40
2021/07/01 05:30:55;;;;;;;;;;;;;;;20.20;55.01;100330.53;5035732;28;940;-39
2021/07/01 05:33:39;;;;;;;;;;;;;;;20.32;54.54;100333.59;5035248;28;603;-41
2021/07/01 05:36:06;;;;;;;;;;;;;;;20.23;54.88;100335.44;5030440;28;1269;-38
2021/07/01 05:38:32;;;;;;;;;;;;;;;20.14;55.12;100346.41;5034889;28;1989;-41
2021/07/01 05:40:58;;;;;;;;;;;;;;;20.13;56.13;100364.91;5029158;28;1103;-40
2021/07/01 05:43:24;;;;;;;;;;;;;;;20.13;55.74;100384.22;5035617;28;728;-40
2021/07/01 05:45:52;;;;;;;;;;;;;;;20.32;55.13;100395.16;5054106;28;1002;-38
2021/07/01 05:48:18;;;;;;;;;;;;;;;20.38;54.80;100398.63;5037635;28;1203;-40
2021/07/01 05:50:54;;;;;;;;;;;;;;;20.38;54.58;100392.28;5056102;28;756;-40
2021/07/01 05:56:08;;;;;;;;;;;;;;;20.40;54.24;100377.03;5020568;28;1084;-41
2021/07/01 05:58:33;;;;;;;;;;;;;;;20.27;54.45;100389.75;5059530;28;1913;-40
2021/07/01 06:00:58;;;;;;;;;;;;;;;20.33;54.52;100395.97;5041823;28;1142;-42
2021/07/01 06:03:24;;;;;;;;;;;;;;;20.25;54.69;100402.22;5058722;28;843;-40
2021/07/01 06:06:01;;;;;;;;;;;;;;;20.28;54.49;100393.31;5041452;28;1199;-39
2021/07/01 06:09:05;;;;;;;;;;;;;;;20.13;54.80;100387.00;5058763;28;1256;-38
2021/07/01 06:11:32;;;;;;;;;;;;;;;20.34;54.41;100392.06;5059156;28;811;-37
2021/07/01 06:13:57;;;;;;;;;;;;;;;20.21;54.76;100392.91;5038576;28;971;-41
2021/07/01 06:16:23;;;;;;;;;;;;;;;20.48;54.08;100369.97;5038754;28;848;-42
2021/07/01 06:18:50;;;;;;;;;;;;;;;20.12;54.83;100357.75;5031380;28;1906;-42
2021/07/01 06:21:16;;;;;;;;;;;;;;;20.24;54.74;100357.22;5038091;28;769;-38
2021/07/01 06:23:42;;;;;;;;;;;;;;;20.38;54.15;100365.47;5038528;28;1021;-38
2021/07/01 06:26:08;;;;;;;;;;;;;;;20.19;54.56;100360.09;5033345;28;811;-41
2021/07/01 06:28:40;;;;;;;;;;;;;;;20.29;54.39;100359.88;5038133;28;1326;-41
2021/07/01 06:31:06;;;;;;;;;;;;;;;20.25;54.37;100361.63;5038443;28;799;-42
2021/07/01 06:33:32;;;;;;;;;;;;;;;20.34;54.07;100357.00;5020960;28;1325;-41
2021/07/01 06:35:58;;;;;;;;;;;;;;;20.12;54.74;100352.22;5020945;28;1218;-43
2021/07/01 06:38:43;;;;;;;;;;;;;;;20.15;55.03;100335.03;5023343;28;1973;-39
2021/07/01 06:41:46;;;;;;;;;;;;;;;20.36;54.53;100334.59;4978036;28;1072;-38
2021/07/01 06:44:30;;;;;;;;;;;;;;;20.36;54.56;100337.38;4970801;28;929;-43
2021/07/01 06:47:28;;;;;;;;;;;;;;;20.36;54.75;100323.56;4994084;28;1222;-40
2021/07/01 06:50:13;;;;;;;;;;;;;;;20.37;54.73;100313.31;5023849;28;623;-38
2021/07/01 06:52:57;;;;;;;;;;;;;;;20.53;54.09;100322.91;5023308;28;665;-42
2021/07/01 06:55:42;;;;;;;;;;;;;;;20.15;55.60;100318.47;5038500;28;670;-41
2021/07/01 06:58:14;;;;;;;;;;;;;;;20.41;54.81;100315.19;5038709;28;1917;-39
2021/07/01 07:00:40;;;;;;;;;;;;;;;20.28;55.51;100311.28;5036469;28;961;-43
2021/07/01 07:03:05;;;;;;;;;;;;;;;20.29;55.42;100309.38;5058222;28;768;-43
2021/07/01 07:05:31;;;;;;;;;;;;;;;20.23;55.99;100307.81;5040369;28;768;-39
2021/07/01 07:07:56;;;;;;;;;;;;;;;20.23;55.82;100314.19;5057753;28;857;-41
2021/07/01 07:10:22;;;;;;;;;;;;;;;20.41;55.21;100320.69;5040308;28;917;-40
2021/07/01 07:12:54;;;;;;;;;;;;;;;20.54;54.83;100312.66;5058002;28;772;-43
2021/07/01 07:15:28;;;;;;;;;;;;;;;20.49;55.53;100308.06;5057529;28;1038;-43
2021/07/01 07:17:54;;;;;;;;;;;;;;;20.82;55.82;100308.72;5057998;28;1913;-41
2021/07/01 07:20:21;;;;;;;;;;;;;;;20.87;58.10;100305.00;5057881;28;768;-41
2021/07/01 07:22:47;;;;;;;;;;;;;;;21.09;59.34;100309.69;5057914;28;840;-41
2021/07/01 07:25:12;;;;;;;;;;;;;;;21.06;61.01;100304.81;5057482;28;1156;-40
2021/07/01 07:27:38;;;;;;;;;;;;;;;21.26;61.50;100311.75;5057692;28;760;-40
2021/07/01 07:30:05;;;;;;;;;;;;;;;21.29;60.70;100307.53;5057820;28;1034;-42
2021/07/01 07:32:31;;;;;;;;;;;;;;;20.76;59.75;100298.09;5057595;28;764;-44
2021/07/01 07:34:56;;;;;;;;;;;;;;;20.93;61.43;100300.16;5057326;28;901;-39
2021/07/01 07:37:22;;;;;;;;;;;;;;;21.35;63.86;100303.53;5057758;28;780;-42
2021/07/01 07:39:47;;;;;;;;;;;;;;;21.61;64.80;100320.25;5057164;28;1968;-45
2021/07/01 07:42:13;;;;;;;;;;;;;;;21.88;64.38;100307.31;5057513;28;816;-41
2021/07/01 07:44:39;;;;;;;;;;;;;;;21.72;64.91;100312.47;5057121;28;982;-40
2021/07/01 07:47:05;;;;;;;;;;;;;;;21.75;64.77;100311.84;5056990;28;768;-39
2021/07/01 07:49:31;;;;;;;;;;;;;;;20.92;62.11;100304.88;5057295;28;791;-45
2021/07/01 07:51:56;;;;;;;;;;;;;;;20.03;58.38;100296.09;5057479;28;804;-42
2021/07/01 07:54:23;;;;;;;;;;;;;;;20.14;59.67;100294.75;5038981;28;793;-38
2021/07/01 07:56:48;;;;;;;;;;;;;;;19.99;58.55;100293.16;5057544;28;768;-47
2021/07/01 07:59:14;;;;;;;;;;;;;;;20.14;58.31;100305.00;5052329;28;1910;-39
2021/07/01 08:01:39;;;;;;;;;;;;;;;20.81;60.10;100307.06;5027159;28;949;-38
2021/07/01 08:04:05;;;;;;;;;;;;;;;21.11;61.57;100301.09;5035931;28;740;-37
2021/07/01 08:06:31;;;;;;;;;;;;;;;21.29;62.69;100299.25;5037146;28;848;-39
2021/07/01 08:08:56;;;;;;;;;;;;;;;21.24;64.01;100294.66;5036998;28;812;-41
2021/07/01 08:11:23;;;;;;;;;;;;;;;21.46;64.19;100299.34;5033781;28;832;-42
2021/07/01 08:13:51;;;;;;;;;;;;;;;21.25;62.20;100303.78;5030174;28;1014;-42
2021/07/01 08:16:16;;;;;;;;;;;;;;;20.83;60.31;100302.06;5056584;28;740;-37
2021/07/01 08:18:42;;;;;;;;;;;;;;;21.15;62.73;100305.69;5055960;28;1913;-39
2021/07/01 08:21:11;;;;;;;;;;;;;;;21.60;64.64;100310.34;5056861;28;752;-49
2021/07/01 08:23:38;;;;;;;;;;;;;;;21.98;65.19;100308.97;5056202;28;1198;-38
2021/07/01 08:26:04;;;;;;;;;;;;;;;22.20;65.75;100306.09;5056623;28;862;-43
2021/07/01 08:28:30;;;;;;;;;;;;;;;21.77;65.97;100320.66;5056531;28;776;-42
2021/07/01 08:30:59;;;;;;;;;;;;;;;21.48;66.51;100321.94;5056304;28;1037;-44
2021/07/01 08:33:28;;;;;;;;;;;;;;;21.10;62.61;100311.34;5056609;28;744;-42
2021/07/01 08:35:54;;;;;;;;;;;;;;;20.78;59.60;100324.28;5056193;28;780;-38
2021/07/01 08:38:19;;;;;;;;;;;;;;;20.97;62.69;100326.03;5056197;28;1979;-44
2021/07/01 08:40:44;;;;;;;;;;;;;;;20.97;63.93;100315.81;5056625;28;847;-38
2021/07/01 08:43:10;;;;;;;;;;;;;;;21.37;63.39;100323.38;5056269;28;827;-38
2021/07/01 08:45:38;;;;;;;;;;;;;;;21.36;63.52;100321.72;5038058;28;998;-38
2021/07/01 08:48:04;;;;;;;;;;;;;;;21.28;62.81;100326.09;5056489;28;760;-38
2021/07/01 08:50:30;;;;;;;;;;;;;;;21.28;61.64;100319.72;5039095;28;821;-39
2021/07/01 08:53:01;;;;;;;;;;;;;;;21.18;60.91;100312.50;5056090;28;791;-38
2021/07/01 08:55:30;;;;;;;;;;;;;;;21.23;60.22;100317.09;5055886;28;824;-39
2021/07/01 08:57:56;;;;;;;;;;;;;;;21.17;59.71;100311.69;5056138;28;1980;-39
2021/07/01 09:00:22;;;;;;;;;;;;;;;21.06;59.84;100310.34;5055687;28;955;-39
2021/07/01 09:02:56;;;;;;;;;;;;;;;21.08;59.23;100312.78;5056053;28;847;-43
2021/07/01 09:05:21;;;;;;;;;;;;;;;20.66;60.36;100311.00;5055909;28;768;-43
2021/07/01 09:07:51;;;;;;;;;;;;;;;20.43;60.21;100312.91;5038399;28;780;-41
2021/07/01 09:10:16;;;;;;;;;;;;;;;20.36;61.03;100315.28;5055959;28;776;-39
2021/07/01 09:12:42;;;;;;;;;;;;;;;20.62;60.17;100300.88;5056131;28;795;-39
2021/07/01 09:15:09;;;;;;;;;;;;;;;20.75;59.36;100299.22;5055520;28;963;-43
2021/07/01 09:17:34;;;;;;;;;;;;;;;20.78;59.16;100288.34;5055839;28;794;-45
2021/07/01 09:20:00;;;;;;;;;;;;;;;20.78;58.82;100285.59;5056214;28;1914;-40
2021/07/01 09:22:26;;;;;;;;;;;;;;;20.80;58.80;100286.09;5055675;28;716;-44
2021/07/01 09:24:52;;;;;;;;;;;;;;;21.00;57.91;100281.19;5055667;28;1190;-39
2021/07/01 09:27:17;;;;;;;;;;;;;;;20.81;58.73;100284.97;5055856;28;839;-41
2021/07/01 09:29:44;;;;;;;;;;;;;;;20.91;58.41;100283.88;5056088;28;967;-42
2021/07/01 09:32:10;;;;;;;;;;;;;;;20.74;58.87;100292.88;5059924;28;748;-40
2021/07/01 09:34:35;;;;;;;;;;;;;;;20.68;59.11;100285.84;5060312;28;752;-44
2021/07/01 09:37:04;;;;;;;;;;;;;;;20.50;60.06;100279.34;5059320;28;807;-42
2021/07/01 09:39:32;;;;;;;;;;;;;;;20.55;59.42;100275.63;5059867;28;1985;-39
2021/07/01 09:42:02;;;;;;;;;;;;;;;20.67;59.38;100273.97;5059930;28;819;-41
2021/07/01 09:44:28;;;;;;;;;;;;;;;20.73;59.28;100269.13;5059128;28;991;-43
2021/07/01 09:46:55;;;;;;;;;;;;;;;20.94;58.73;100261.13;5059641;28;756;-39
2021/07/01 09:49:21;;;;;;;;;;;;;;;20.89;59.16;100258.53;5060314;28;783;-45
2021/07/01 09:51:47;;;;;;;;;;;;;;;21.18;58.33;100260.81;5041980;28;740;-38
2021/07/01 09:54:12;;;;;;;;;;;;;;;21.05;58.51;100256.16;5059675;28;748;-39
2021/07/01 09:56:38;;;;;;;;;;;;;;;20.55;60.34;100264.59;5041626;28;760;-41
2021/07/01 09:59:04;;;;;;;;;;;;;;;20.57;58.66;100263.16;5040964;28;1918;-39
2021/07/01 10:01:41;;;;;;;;;;;;;;;20.74;60.17;100268.00;5041281;28;866;-39
2021/07/01 10:04:07;;;;;;;;;;;;;;;20.84;61.32;100267.75;5059337;28;847;-39
2021/07/01 10:06:33;;;;;;;;;;;;;;;21.25;61.55;100273.34;5059003;28;788;-43
2021/07/01 10:08:59;;;;;;;;;;;;;;;21.34;62.06;100275.03;5041694;28;756;-39
2021/07/01 10:11:41;;;;;;;;;;;;;;;21.10;63.94;100269.88;5041394;28;831;-43
2021/07/01 10:14:13;;;;;;;;;;;;;;;21.07;62.77;100270.50;5058590;28;1021;-45
2021/07/01 10:16:38;;;;;;;;;;;;;;;20.63;62.02;100269.38;5059027;28;776;-45
2021/07/01 10:19:04;;;;;;;;;;;;;;;20.93;63.88;100269.75;5059142;28;1993;-45
2021/07/01 10:21:30;;;;;;;;;;;;;;;20.83;65.53;100268.06;5058745;28;1071;-43
2021/07/01 10:24:11;;;;;;;;;;;;;;;21.05;66.08;100261.69;5059096;28;1091;-38
2021/07/01 10:26:44;;;;;;;;;;;;;;;21.11;65.58;100265.97;5058696;28;820;-46
2021/07/01 10:29:09;;;;;;;;;;;;;;;20.88;66.10;100258.84;5058715;28;975;-42
2021/07/01 10:31:58;;;;;;;;;;;;;;;20.93;67.37;100269.75;5041668;28;958;-49
2021/07/01 10:34:24;;;;;;;;;;;;;;;20.91;66.66;100249.91;5041233;28;1333;-44
2021/07/01 10:37:09;;;;;;;;;;;;;;;20.98;66.10;100255.81;5058393;28;832;-38
2021/07/01 10:39:34;;;;;;;;;;;;;;;21.11;65.98;100249.41;5058792;28;1913;-37
2021/07/01 10:42:01;;;;;;;;;;;;;;;21.04;66.23;100251.78;5040237;28;725;-38
2021/07/01 10:44:26;;;;;;;;;;;;;;;21.02;67.14;100251.28;5058626;28;995;-47
2021/07/01 10:46:52;;;;;;;;;;;;;;;21.07;66.31;100248.41;5058337;28;768;-42
2021/07/01 10:49:18;;;;;;;;;;;;;;;21.15;66.27;100244.88;5058971;28;815;-39
2021/07/01 10:51:56;;;;;;;;;;;;;;;21.01;67.78;100233.91;5058127;28;807;-39
2021/07/01 10:54:21;;;;;;;;;;;;;;;21.19;66.08;100237.53;5058958;28;784;-39
2021/07/01 10:56:48;;;;;;;;;;;;;;;21.06;66.66;100232.94;5058577;28;786;-39
2021/07/01 10:59:13;;;;;;;;;;;;;;;21.29;66.99;100230.09;5057671;28;1918;-53
2021/07/01 11:01:41;;;;;;;;;;;;;;;21.11;65.26;100221.75;5058306;28;756;-40
2021/07/01 11:04:25;;;;;;;;;;;;;;;20.98;66.28;100236.47;5058710;28;764;-41
2021/07/01 11:06:56;;;;;;;;;;;;;;;21.14;67.51;100225.81;5057674;28;752;-40
2021/07/01 11:09:40;;;;;;;;;;;;;;;21.35;67.02;100224.13;5058215;28;858;-42
2021/07/01 11:12:06;;;;;;;;;;;;;;;21.34;66.40;100218.91;5058490;28;729;-39
2021/07/01 11:14:41;;;;;;;;;;;;;;;21.26;66.60;100227.97;5039245;28;1034;-39
2021/07/01 11:17:07;;;;;;;;;;;;;;;21.08;67.73;100221.56;5057977;28;732;-39
2021/07/01 11:19:39;;;;;;;;;;;;;;;21.32;66.19;100210.09;5057862;28;1977;-40
2021/07/01 11:22:04;;;;;;;;;;;;;;;21.31;66.56;100209.31;5057948;28;744;-39
2021/07/01 11:24:30;;;;;;;;;;;;;;;21.41;66.21;100205.44;5057767;28;1167;-39
2021/07/01 11:27:02;;;;;;;;;;;;;;;21.25;65.96;100212.53;5057889;28;756;-40
2021/07/01 11:29:41;;;;;;;;;;;;;;;21.30;66.84;100212.38;5057381;28;971;-39
2021/07/01 11:32:16;;;;;;;;;;;;;;;21.48;65.55;100213.28;5057814;28;692;-39
2021/07/01 11:34:42;;;;;;;;;;;;;;;21.39;64.35;100201.34;5039663;28;1593;-39
2021/07/01 11:37:07;;;;;;;;;;;;;;;21.25;65.76;100201.47;5057855;28;831;-39
2021/07/01 11:39:32;;;;;;;;;;;;;;;21.48;65.11;100207.75;5057429;28;1918;-40
2021/07/01 11:41:58;;;;;;;;;;;;;;;21.35;66.07;100196.47;5057173;28;749;-39
2021/07/01 11:44:24;;;;;;;;;;;;;;;21.39;65.43;100199.38;5057221;28;939;-38
2021/07/01 11:46:49;;;;;;;;;;;;;;;21.36;64.74;100194.50;5057437;28;752;-38
2021/07/01 11:49:15;;;;;;;;;;;;;;;21.27;66.24;100194.47;5057018;28;725;-43
2021/07/01 11:51:40;;;;;;;;;;;;;;;21.26;66.06;100192.03;5039978;28;836;-39
2021/07/01 11:54:12;;;;;;;;;;;;;;;21.42;65.25;100182.19;5057314;28;744;-54
2021/07/01 11:59:28;;;;;;;;;;;;;;;21.42;64.89;100176.66;5056790;28;1914;-42
2021/07/01 12:01:53;;;;;;;;;;;;;;;21.44;64.49;100177.13;5039439;28;1102;-40
2021/07/01 12:04:20;;;;;;;;;;;;;;;21.06;64.73;100177.66;5056898;28;760;-43
2021/07/01 12:06:54;;;;;;;;;;;;;;;21.26;65.98;100183.75;5039370;28;1461;-39
2021/07/01 12:09:20;;;;;;;;;;;;;;;21.34;65.73;100175.47;5056788;28;760;-38
2021/07/01 12:12:12;;;;;;;;;;;;;;;21.16;64.64;100173.78;5056784;28;851;-43
2021/07/01 12:14:41;;;;;;;;;;;;;;;21.32;64.68;100176.91;5051975;28;1134;-40
2021/07/01 12:17:07;;;;;;;;;;;;;;;21.59;65.15;100172.28;5056983;28;786;-39
2021/07/01 12:19:48;;;;;;;;;;;;;;;21.57;64.93;100169.06;5056362;28;1979;-38
2021/07/01 12:22:32;;;;;;;;;;;;;;;21.43;65.70;100169.16;5056773;28;785;-38
2021/07/01 12:24:57;;;;;;;;;;;;;;;21.44;64.20;100159.72;5056533;28;1044;-38
2021/07/01 12:27:31;;;;;;;;;;;;;;;21.26;64.15;100167.97;5056464;28;848;-42
2021/07/01 12:29:57;;;;;;;;;;;;;;;21.43;64.62;100161.66;5056534;28;963;-39
2021/07/01 12:32:25;;;;;;;;;;;;;;;21.50;63.78;100156.50;5039145;28;836;-41
2021/07/01 12:34:51;;;;;;;;;;;;;;;21.37;64.07;100160.19;5056379;28;775;-38
2021/07/01 12:37:16;;;;;;;;;;;;;;;21.32;65.47;100154.78;5056432;28;728;-38
2021/07/01 12:39:47;;;;;;;;;;;;;;;21.27;65.51;100158.53;5056332;28;1975;-41
2021/07/01 12:42:12;;;;;;;;;;;;;;;21.27;65.41;100136.41;5038466;28;791;-43
2021/07/01 12:44:38;;;;;;;;;;;;;;;21.15;65.56;100136.22;5055696;28;994;-39
2021/07/01 12:47:05;;;;;;;;;;;;;;;21.11;64.67;100130.53;5056541;28;832;-40
2021/07/01 12:49:37;;;;;;;;;;;;;;;21.07;65.62;100132.28;5055814;28;729;-38
2021/07/01 12:52:03;;;;;;;;;;;;;;;20.96;66.06;100130.94;5056654;28;760;-39
2021/07/01 12:54:31;;;;;;;;;;;;;;;21.06;64.19;100127.88;5056311;28;804;-40
2021/07/01 12:56:57;;;;;;;;;;;;;;;21.05;64.27;100137.31;5038020;28;851;-43
2021/07/01 12:59:29;;;;;;;;;;;;;;;21.04;65.13;100132.91;5056236;28;1918;-40
2021/07/01 13:02:00;;;;;;;;;;;;;;;21.01;65.60;100133.56;5056444;28;803;-43
2021/07/01 13:04:26;;;;;;;;;;;;;;;21.06;65.64;100129.84;5055174;28;732;-42
2021/07/01 13:06:52;;;;;;;;;;;;;;;21.07;64.52;100121.22;5056694;28;812;-38
2021/07/01 13:09:30;;;;;;;;;;;;;;;20.82;64.82;100120.00;5053280;28;1179;-39
2021/07/01 13:11:55;;;;;;;;;;;;;;;20.83;65.72;100116.91;5055729;28;796;-40
2021/07/01 13:14:24;;;;;;;;;;;;;;;20.83;66.13;100116.91;5050128;28;948;-39